Inchelium, Washington
Current Conditions -  °F | °C
As of 1:53 AM on Friday 24 Oct 2014 (Local Time) from KDEW Reporting Station
Clear Clear  
Wind Chill:   Ceiling: Unl
Heat Index:   Visibility: 10mi
Dew Point:   Wind: 5mph
Humidity: 85%   Direction: 180°S
Pressure: 30.02"   Gusts: NA
Location:  48.34°N, 118.25°W
Report Text: KDEW 240853Z AUTO 18004KT 10SM CLR 07/04 A3002 RMK AO2 SLP169 T00670044 53020
Loading
Personal Weather Stations






























Interactive Weather Map
Tropical Storm Tracking
New forecast layout! Learn more

10-Day Weather Forecast

Advertisements
Track Severe Weather on mobile